createdAt,value
2023-03-27T00:02:28.998Z,97901.95
2023-03-27T00:05:20.667Z,97898.91
2023-03-27T00:08:11.515Z,97894.73
2023-03-27T00:11:02.191Z,97892.72
2023-03-27T00:13:54.621Z,97894.41
2023-03-27T00:16:46.612Z,97895.20
2023-03-27T00:19:37.463Z,97897.26
2023-03-27T00:22:30.077Z,97898.73
2023-03-27T00:25:22.757Z,97892.55
2023-03-27T00:28:14.066Z,97893.50
2023-03-27T00:31:04.853Z,97887.23
2023-03-27T00:33:55.982Z,97885.83
2023-03-27T00:36:51.277Z,97879.27
2023-03-27T00:39:42.587Z,97874.92
2023-03-27T00:42:33.633Z,97876.68
2023-03-27T00:45:26.682Z,97876.73
2023-03-27T00:48:18.921Z,97874.89
2023-03-27T00:51:09.873Z,97875.10
2023-03-27T00:54:00.775Z,97871.15
2023-03-27T00:56:51.943Z,97872.23
2023-03-27T00:59:43.167Z,97876.60
2023-03-27T01:02:33.786Z,97881.13
2023-03-27T01:05:24.897Z,97884.73
2023-03-27T01:08:16.597Z,97888.30
2023-03-27T01:11:15.061Z,97889.95
2023-03-27T01:14:12.330Z,97889.38
2023-03-27T01:17:21.125Z,97886.35
2023-03-27T01:20:25.762Z,97891.16
2023-03-27T01:23:59.142Z,97889.38
2023-03-27T01:27:06.368Z,97888.08
2023-03-27T01:30:17.194Z,97887.43
2023-03-27T01:33:27.241Z,97886.70
2023-03-27T01:36:25.062Z,97884.85
2023-03-27T01:39:37.461Z,97884.26
2023-03-27T01:42:31.490Z,97875.23
2023-03-27T01:45:23.835Z,97871.80
2023-03-27T01:48:16.971Z,97869.33
2023-03-27T01:51:09.366Z,97867.70
2023-03-27T01:54:01.563Z,97866.63
2023-03-27T01:56:54.132Z,97871.53
2023-03-27T01:59:47.308Z,97871.00
2023-03-27T02:02:37.640Z,97871.44
2023-03-27T02:05:31.740Z,97877.31
2023-03-27T02:08:24.747Z,97875.47
2023-03-27T02:11:18.944Z,97873.13
2023-03-27T02:14:10.458Z,97868.95
2023-03-27T02:17:03.564Z,97868.05
2023-03-27T02:19:57.537Z,97867.76
2023-03-27T02:22:49.576Z,97862.80
2023-03-27T02:25:40.765Z,97860.76
2023-03-27T02:28:49.341Z,97861.17
2023-03-27T02:31:46.498Z,97854.05
2023-03-27T02:34:51.019Z,97859.17
2023-03-27T02:37:47.540Z,97866.39
2023-03-27T02:40:42.004Z,97867.41
2023-03-27T02:43:57.585Z,97870.80
2023-03-27T02:47:03.050Z,97872.34
2023-03-27T02:49:55.236Z,97876.33
2023-03-27T02:52:46.860Z,97875.44
2023-03-27T02:55:39.976Z,97880.46
2023-03-27T02:58:39.838Z,97880.70
2023-03-27T03:01:37.482Z,97879.56
2023-03-27T03:04:41.841Z,97882.44
2023-03-27T03:07:50.449Z,97880.04
2023-03-27T03:10:44.758Z,97876.42
2023-03-27T03:13:36.372Z,97885.55
2023-03-27T03:16:27.156Z,97893.97
2023-03-27T03:19:17.677Z,97896.07
2023-03-27T03:22:08.358Z,97897.77
2023-03-27T03:25:00.108Z,97905.48
2023-03-27T03:27:58.576Z,97905.57
2023-03-27T03:30:51.523Z,97898.52
2023-03-27T03:33:42.434Z,97907.29
2023-03-27T03:36:32.968Z,97907.58
2023-03-27T03:39:24.404Z,97913.36
2023-03-27T03:42:22.340Z,97922.21
2023-03-27T03:45:16.332Z,97925.89
2023-03-27T03:48:08.027Z,97929.80
2023-03-27T03:50:58.793Z,97931.79
2023-03-27T03:53:49.906Z,97929.98
2023-03-27T03:56:41.816Z,97936.49
2023-03-27T03:59:32.546Z,97940.72
2023-03-27T04:02:41.672Z,97938.58
2023-03-27T04:05:34.822Z,97937.03
2023-03-27T04:08:25.472Z,97938.89
2023-03-27T04:11:28.013Z,97939.33
2023-03-27T04:14:29.580Z,97944.18
2023-03-27T04:17:20.786Z,97944.07
2023-03-27T04:20:13.082Z,97942.73
2023-03-27T04:23:03.912Z,97948.98
2023-03-27T04:25:55.053Z,97953.00
2023-03-27T04:28:51.733Z,97954.66
2023-03-27T04:32:01.422Z,97964.97
2023-03-27T04:35:12.737Z,97973.05
2023-03-27T04:38:13.385Z,97979.15
2023-03-27T04:41:09.452Z,97987.28
2023-03-27T04:44:00.433Z,97993.43
2023-03-27T04:46:52.095Z,97994.91
2023-03-27T04:49:47.110Z,97994.05
2023-03-27T04:52:50.645Z,97996.13
2023-03-27T04:55:43.385Z,97996.06
2023-03-27T04:58:37.203Z,97995.57
2023-03-27T05:01:31.667Z,97991.80
2023-03-27T05:04:39.099Z,97993.77
2023-03-27T05:07:39.291Z,97990.36
2023-03-27T05:10:31.009Z,97990.80
2023-03-27T05:13:22.899Z,97987.67
2023-03-27T05:16:13.860Z,97990.11
2023-03-27T05:19:08.014Z,97987.14
2023-03-27T05:22:04.722Z,97989.71
2023-03-27T05:24:55.552Z,97986.91
2023-03-27T05:27:49.738Z,97986.55
2023-03-27T05:30:42.356Z,97989.96
2023-03-27T05:33:40.004Z,97990.35
2023-03-27T05:36:31.917Z,97989.65
2023-03-27T05:39:25.499Z,97999.27
2023-03-27T05:42:16.256Z,98005.69
2023-03-27T05:45:07.796Z,98011.52
2023-03-27T05:47:59.922Z,98018.76
2023-03-27T05:50:51.137Z,98022.43
2023-03-27T05:53:44.924Z,98027.59
2023-03-27T05:56:41.651Z,98029.90
2023-03-27T05:59:33.412Z,98035.34
2023-03-27T06:02:35.864Z,98042.63
2023-03-27T06:05:27.825Z,98046.43
2023-03-27T06:08:18.135Z,98048.41
2023-03-27T06:11:14.003Z,98056.45
2023-03-27T06:14:13.246Z,98059.78
2023-03-27T06:17:20.862Z,98063.63
2023-03-27T06:20:22.927Z,98068.83
2023-03-27T06:23:15.695Z,98073.05
2023-03-27T06:26:06.432Z,98076.45
2023-03-27T06:28:57.457Z,98074.95
2023-03-27T06:31:48.420Z,98076.77
2023-03-27T06:34:50.456Z,98082.98
2023-03-27T06:38:02.863Z,98087.29
2023-03-27T06:40:53.543Z,98091.48
2023-03-27T06:43:44.094Z,98099.50
2023-03-27T06:46:45.240Z,98097.90
2023-03-27T06:50:03.191Z,98111.08
2023-03-27T06:52:53.742Z,98112.95
2023-03-27T06:56:04.783Z,98115.91
2023-03-27T06:59:09.125Z,98120.57
2023-03-27T07:02:00.789Z,98126.23
2023-03-27T07:05:17.769Z,98124.69
2023-03-27T07:08:21.165Z,98132.31
2023-03-27T07:11:15.044Z,98139.58
2023-03-27T07:14:12.112Z,98142.46
2023-03-27T07:17:02.911Z,98151.98
2023-03-27T07:20:07.872Z,98155.02
2023-03-27T07:22:58.909Z,98155.95
2023-03-27T07:26:07.924Z,98155.86
2023-03-27T07:29:19.654Z,98165.48
2023-03-27T07:32:22.330Z,98166.23
2023-03-27T07:35:21.056Z,98175.09
2023-03-27T07:38:30.942Z,98183.70
2023-03-27T07:41:36.779Z,98190.08
2023-03-27T07:44:40.956Z,98198.36
2023-03-27T07:47:32.295Z,98205.27
2023-03-27T07:50:23.903Z,98208.23
2023-03-27T07:53:33.584Z,98219.05
2023-03-27T07:56:29.637Z,98225.91
2023-03-27T07:59:34.890Z,98233.87
2023-03-27T08:02:32.584Z,98242.42
2023-03-27T08:05:23.076Z,98240.80
2023-03-27T08:08:23.901Z,98245.63
2023-03-27T08:11:30.069Z,98251.73
2023-03-27T08:14:21.901Z,98255.64
2023-03-27T08:17:16.128Z,98260.60
2023-03-27T08:20:10.127Z,98262.34
2023-03-27T08:23:07.849Z,98262.35
2023-03-27T08:26:18.453Z,98266.25
2023-03-27T08:29:35.136Z,98269.36
2023-03-27T08:32:26.209Z,98275.17
2023-03-27T08:35:18.151Z,98275.30
2023-03-27T08:38:23.699Z,98285.91
2023-03-27T08:41:38.641Z,98291.74
2023-03-27T08:44:36.973Z,98299.42
2023-03-27T08:47:32.700Z,98303.96
2023-03-27T08:50:40.048Z,98304.61
2023-03-27T08:53:39.639Z,98301.76
2023-03-27T08:56:30.347Z,98305.39
2023-03-27T08:59:22.649Z,98308.23
2023-03-27T09:02:19.702Z,98305.72
2023-03-27T09:05:15.639Z,98307.56
2023-03-27T09:08:10.525Z,98304.81
2023-03-27T09:11:03.567Z,98304.89
2023-03-27T09:13:57.484Z,98302.64
2023-03-27T09:16:50.086Z,98305.48
2023-03-27T09:19:56.704Z,98305.38
2023-03-27T09:22:52.712Z,98306.21
2023-03-27T09:26:06.793Z,98318.08
2023-03-27T09:29:20.752Z,98324.11
2023-03-27T09:32:16.227Z,98327.15
2023-03-27T09:35:07.643Z,98326.48
2023-03-27T09:38:04.051Z,98331.30
2023-03-27T09:40:58.198Z,98328.83
2023-03-27T09:43:53.751Z,98332.14
2023-03-27T09:46:45.850Z,98335.78
2023-03-27T09:49:36.915Z,98337.46
2023-03-27T09:52:38.310Z,98339.68
2023-03-27T09:55:53.183Z,98342.58
2023-03-27T09:58:46.352Z,98348.16
2023-03-27T10:01:38.369Z,98353.81
2023-03-27T10:04:36.767Z,98347.34
2023-03-27T10:07:27.425Z,98346.23
2023-03-27T10:10:37.945Z,98347.15
2023-03-27T10:13:29.588Z,98353.08
2023-03-27T10:16:21.640Z,98358.59
2023-03-27T10:19:25.103Z,98359.42
2023-03-27T10:22:22.322Z,98368.86
2023-03-27T10:25:19.429Z,98372.55
2023-03-27T10:28:20.331Z,98369.46
2023-03-27T10:31:38.032Z,98372.26
2023-03-27T10:34:51.589Z,98368.30
2023-03-27T10:37:49.902Z,98368.50
2023-03-27T10:40:59.244Z,98367.69
2023-03-27T10:43:59.396Z,98375.02
2023-03-27T10:46:50.341Z,98372.28
2023-03-27T10:49:44.267Z,98375.08
2023-03-27T10:52:47.042Z,98378.33
2023-03-27T10:55:54.018Z,98386.98
2023-03-27T10:58:47.215Z,98387.38
2023-03-27T11:01:39.592Z,98380.41
2023-03-27T11:04:37.590Z,98380.73
2023-03-27T11:07:33.989Z,98381.56
2023-03-27T11:10:28.005Z,98380.30
2023-03-27T11:13:23.281Z,98387.33
2023-03-27T11:16:22.093Z,98393.20
2023-03-27T11:19:39.384Z,98394.59
2023-03-27T11:22:52.665Z,98397.15
2023-03-27T11:26:00.272Z,98397.38
2023-03-27T11:28:53.137Z,98400.80
2023-03-27T11:31:46.399Z,98397.48
2023-03-27T11:34:41.684Z,98390.37
2023-03-27T11:37:53.502Z,98396.49
2023-03-27T11:40:44.897Z,98397.94
2023-03-27T11:43:35.563Z,98394.95
2023-03-27T11:46:44.817Z,98401.34
2023-03-27T11:50:04.888Z,98396.48
2023-03-27T11:53:05.481Z,98397.66
2023-03-27T11:56:32.393Z,98401.27
2023-03-27T11:59:49.151Z,98402.23
2023-03-27T12:02:50.285Z,98407.13
2023-03-27T12:05:48.388Z,98413.36
2023-03-27T12:08:48.300Z,98413.45
2023-03-27T12:11:40.269Z,98418.45
2023-03-27T12:14:40.444Z,98421.30
2023-03-27T12:17:46.210Z,98422.56
2023-03-27T12:20:58.707Z,98425.66
2023-03-27T12:24:09.687Z,98423.92
2023-03-27T12:27:07.570Z,98432.23
2023-03-27T12:30:20.307Z,98431.19
2023-03-27T12:33:32.547Z,98432.56
2023-03-27T12:36:24.403Z,98443.19
2023-03-27T12:39:20.120Z,98448.63
2023-03-27T12:42:16.533Z,98457.41
2023-03-27T12:45:16.227Z,98465.81
2023-03-27T12:48:19.373Z,98473.33
2023-03-27T12:51:15.162Z,98481.24
2023-03-27T12:54:26.567Z,98484.20
2023-03-27T12:57:20.768Z,98489.26
2023-03-27T13:00:22.322Z,98487.83
2023-03-27T13:03:22.800Z,98494.20
2023-03-27T13:06:24.712Z,98501.63
2023-03-27T13:09:40.132Z,98502.11
2023-03-27T13:12:52.595Z,98505.75
2023-03-27T13:15:52.297Z,98504.13
2023-03-27T13:19:01.925Z,98514.86
2023-03-27T13:21:58.470Z,98512.83
2023-03-27T13:25:09.110Z,98521.37
2023-03-27T13:28:28.469Z,98522.28
2023-03-27T13:32:01.669Z,98521.23
2023-03-27T13:35:33.048Z,98518.35
2023-03-27T13:39:08.052Z,98520.80
2023-03-27T13:42:13.564Z,98528.82
2023-03-27T13:45:13.981Z,98528.92
2023-03-27T13:48:33.841Z,98532.56
2023-03-27T13:51:44.729Z,98534.06
2023-03-27T13:54:55.730Z,98549.03
2023-03-27T13:58:14.962Z,98570.04
2023-03-27T14:01:34.341Z,98585.52
2023-03-27T14:04:59.933Z,98589.00
2023-03-27T14:08:25.280Z,98602.15
2023-03-27T14:11:59.014Z,98609.49
2023-03-27T14:15:28.923Z,98613.73
2023-03-27T14:19:18.986Z,98618.58
2023-03-27T14:22:14.519Z,98617.75
2023-03-27T14:25:15.096Z,98624.55
2023-03-27T14:28:14.682Z,98631.31
2023-03-27T14:31:08.640Z,98636.60
2023-03-27T14:34:22.459Z,98644.69
2023-03-27T14:37:31.709Z,98646.86
2023-03-27T14:40:28.531Z,98648.32
2023-03-27T14:43:22.389Z,98647.61
2023-03-27T14:46:16.984Z,98656.89
2023-03-27T14:49:08.738Z,98657.29
2023-03-27T14:52:04.091Z,98658.71
2023-03-27T14:55:30.157Z,98660.02
2023-03-27T14:58:43.124Z,98656.64
2023-03-27T15:01:35.215Z,98660.40
2023-03-27T15:04:26.784Z,98665.15
2023-03-27T15:07:20.103Z,98669.34
2023-03-27T15:10:26.321Z,98670.88
2023-03-27T15:13:27.620Z,98672.52
2023-03-27T15:16:20.927Z,98676.75
2023-03-27T15:19:23.214Z,98673.52
2023-03-27T15:22:18.133Z,98668.86
2023-03-27T15:25:10.116Z,98676.95
2023-03-27T15:28:00.769Z,98668.27
2023-03-27T15:30:52.439Z,98664.55
2023-03-27T15:33:46.658Z,98667.16
2023-03-27T15:36:37.492Z,98661.27
2023-03-27T15:39:28.230Z,98674.01
2023-03-27T15:42:18.773Z,98690.63
2023-03-27T15:45:12.705Z,98690.73
2023-03-27T15:48:06.596Z,98696.45
2023-03-27T15:50:58.359Z,98698.06
2023-03-27T15:53:49.864Z,98709.40
2023-03-27T15:56:41.607Z,98713.84
2023-03-27T15:59:32.719Z,98720.26
2023-03-27T16:02:24.689Z,98732.62
2023-03-27T16:05:17.656Z,98737.66
2023-03-27T16:08:08.714Z,98747.28
2023-03-27T16:11:00.599Z,98755.50
2023-03-27T16:13:56.126Z,98763.16
2023-03-27T16:16:49.714Z,98766.86
2023-03-27T16:19:54.896Z,98766.78
2023-03-27T16:22:45.659Z,98776.30
2023-03-27T16:25:36.507Z,98781.40
2023-03-27T16:28:29.822Z,98778.24
2023-03-27T16:31:21.481Z,98782.92
2023-03-27T16:34:23.333Z,98789.30
2023-03-27T16:37:14.471Z,98795.33
2023-03-27T16:40:05.188Z,98799.02
2023-03-27T16:42:56.054Z,98805.88
2023-03-27T16:45:47.901Z,98814.69
2023-03-27T16:48:38.678Z,98823.48
2023-03-27T16:51:32.690Z,98839.88
2023-03-27T16:54:23.213Z,98848.89
2023-03-27T16:57:13.885Z,98856.90
2023-03-27T17:00:05.535Z,98860.70
2023-03-27T17:02:56.519Z,98863.20
2023-03-27T17:05:50.515Z,98863.29
2023-03-27T17:08:41.570Z,98872.48
2023-03-27T17:11:32.601Z,98875.55
2023-03-27T17:14:23.631Z,98886.23
2023-03-27T17:17:14.655Z,98887.12
2023-03-27T17:20:07.759Z,98895.92
2023-03-27T17:22:58.565Z,98895.84
2023-03-27T17:25:49.465Z,98904.17
2023-03-27T17:28:40.155Z,98906.16
2023-03-27T17:31:31.301Z,98910.06
2023-03-27T17:34:22.400Z,98910.15
2023-03-27T17:37:13.786Z,98914.98
2023-03-27T17:40:09.748Z,98923.96
2023-03-27T17:43:00.927Z,98924.20
2023-03-27T17:45:52.009Z,98930.89
2023-03-27T17:48:47.797Z,98930.98
2023-03-27T17:51:42.261Z,98933.66
2023-03-27T17:54:32.777Z,98938.28
2023-03-27T17:57:24.263Z,98939.81
2023-03-27T18:00:17.937Z,98939.18
2023-03-27T18:03:09.061Z,98943.55
2023-03-27T18:06:05.396Z,98949.14
2023-03-27T18:08:56.047Z,98952.63
2023-03-27T18:11:47.142Z,98952.06
2023-03-27T18:14:38.530Z,98954.77
2023-03-27T18:17:29.079Z,98953.05
2023-03-27T18:20:20.356Z,98956.25
2023-03-27T18:23:11.215Z,98959.19
2023-03-27T18:26:04.772Z,98962.92
2023-03-27T18:28:55.619Z,98967.66
2023-03-27T18:31:46.464Z,98970.85
2023-03-27T18:34:37.416Z,98974.48
2023-03-27T18:37:28.537Z,98977.39
2023-03-27T18:40:19.819Z,98978.78
2023-03-27T18:43:12.549Z,98977.83
2023-03-27T18:46:06.247Z,98982.38
2023-03-27T18:48:58.725Z,98987.08
2023-03-27T18:51:49.100Z,98990.60
2023-03-27T18:54:39.926Z,98989.48
2023-03-27T18:57:30.379Z,98990.46
2023-03-27T19:00:22.003Z,98992.59
2023-03-27T19:03:17.978Z,98996.39
2023-03-27T19:06:10.409Z,99000.55
2023-03-27T19:09:01.437Z,98999.73
2023-03-27T19:11:55.371Z,99002.79
2023-03-27T19:15:19.881Z,99007.60
2023-03-27T19:18:46.839Z,99006.45
2023-03-27T19:21:41.983Z,99009.73
2023-03-27T19:24:41.578Z,99007.33
2023-03-27T19:27:39.197Z,99006.41
2023-03-27T19:30:30.666Z,99004.87
2023-03-27T19:33:21.775Z,99005.11
2023-03-27T19:36:13.041Z,99006.06
2023-03-27T19:39:04.591Z,99009.36
2023-03-27T19:41:56.016Z,99007.07
2023-03-27T19:44:46.741Z,99011.25
2023-03-27T19:47:37.706Z,99012.54
2023-03-27T19:50:28.435Z,99010.19
2023-03-27T19:53:35.734Z,99009.92
2023-03-27T19:56:26.737Z,99014.73
2023-03-27T19:59:28.260Z,99016.98
2023-03-27T20:02:21.389Z,99017.27
2023-03-27T20:05:12.501Z,99020.33
2023-03-27T20:08:03.181Z,99022.76
2023-03-27T20:10:53.661Z,99023.66
2023-03-27T20:13:55.571Z,99023.65
2023-03-27T20:16:48.256Z,99029.15
2023-03-27T20:19:46.188Z,99027.70
2023-03-27T20:22:50.256Z,99029.28
2023-03-27T20:25:50.045Z,99032.65
2023-03-27T20:28:40.887Z,99029.98
2023-03-27T20:31:31.655Z,99027.32
2023-03-27T20:34:24.144Z,99026.59
2023-03-27T20:37:14.743Z,99026.05
2023-03-27T20:40:08.635Z,99023.55
2023-03-27T20:43:06.045Z,99025.82
2023-03-27T20:45:59.074Z,99023.66
2023-03-27T20:48:53.889Z,99029.59
2023-03-27T20:51:45.534Z,99028.01
2023-03-27T20:54:36.034Z,99032.91
2023-03-27T20:57:26.684Z,99029.16
2023-03-27T21:00:18.111Z,99031.70
2023-03-27T21:03:08.952Z,99033.41
2023-03-27T21:06:00.987Z,99035.27
2023-03-27T21:08:51.792Z,99034.48
2023-03-27T21:11:42.374Z,99030.49
2023-03-27T21:14:32.898Z,99029.77
2023-03-27T21:17:23.425Z,99029.45
2023-03-27T21:20:14.605Z,99026.37
2023-03-27T21:23:05.581Z,99022.66
2023-03-27T21:25:56.202Z,99023.88
2023-03-27T21:28:46.571Z,99023.29
2023-03-27T21:31:37.227Z,99024.29
2023-03-27T21:34:28.356Z,99031.16
2023-03-27T21:37:19.248Z,99029.91
2023-03-27T21:40:11.702Z,99028.64
2023-03-27T21:43:02.518Z,99026.70
2023-03-27T21:45:53.325Z,99029.16
2023-03-27T21:48:44.863Z,99029.76
2023-03-27T21:51:35.908Z,99026.52
2023-03-27T21:54:26.446Z,99022.66
2023-03-27T21:57:17.257Z,99025.23
2023-03-27T22:00:09.994Z,99027.23
2023-03-27T22:03:03.568Z,99019.60
2023-03-27T22:06:07.709Z,99018.35
2023-03-27T22:09:01.378Z,99016.91
2023-03-27T22:11:51.758Z,99014.26
2023-03-27T22:14:42.130Z,99017.58
2023-03-27T22:17:33.146Z,99010.29
2023-03-27T22:20:23.788Z,99010.13
2023-03-27T22:23:14.341Z,99010.52
2023-03-27T22:26:04.953Z,99006.80
2023-03-27T22:28:57.231Z,99017.13
2023-03-27T22:31:47.978Z,99019.91
2023-03-27T22:34:38.376Z,99020.86
2023-03-27T22:37:28.838Z,99019.82
2023-03-27T22:40:19.630Z,99019.03
2023-03-27T22:43:10.201Z,99016.50
2023-03-27T22:46:06.189Z,99021.45
2023-03-27T22:48:57.333Z,99021.64
2023-03-27T22:51:47.834Z,99009.70
2023-03-27T22:54:38.510Z,99007.92
2023-03-27T22:57:29.162Z,99003.19
2023-03-27T23:00:21.892Z,98997.06
2023-03-27T23:03:12.766Z,98995.44
2023-03-27T23:06:03.714Z,98995.04
2023-03-27T23:08:54.296Z,98998.92
2023-03-27T23:11:45.469Z,99000.84
2023-03-27T23:14:36.210Z,99003.08
2023-03-27T23:17:27.378Z,99003.30
2023-03-27T23:20:18.299Z,99007.91
2023-03-27T23:23:08.804Z,99008.14
2023-03-27T23:25:59.813Z,99007.29
2023-03-27T23:28:50.645Z,99011.19
2023-03-27T23:31:41.915Z,99003.56
2023-03-27T23:34:32.597Z,99008.20
2023-03-27T23:37:23.068Z,99005.09
2023-03-27T23:40:14.344Z,99007.52
2023-03-27T23:43:04.990Z,99012.45
2023-03-27T23:45:56.302Z,99009.45
2023-03-27T23:48:47.229Z,99012.73
2023-03-27T23:51:37.762Z,99013.27
2023-03-27T23:54:28.305Z,99016.59
2023-03-27T23:57:19.137Z,99010.80
